Time;durP1;ratioP1;P1;durP2;ratioP2;P2;SDS_P1;SDS_P2;PMS_P1;PMS_P2;Temp;Humidity;BMP_temperature;BMP_pressure;BME280_temperature;BME280_humidity;BME280_pressure;Samples;Min_cycle;Max_cycle;Signal;HPM_P1;HPM_P2
2021/07/30 00:00:55;;;;;;;0.90;0.67;;;;;;;;;;5068572;28;20473;-80
2021/07/30 00:03:21;;;;;;;1.17;0.90;;;;;;;;;;5069118;28;20991;-80
2021/07/30 00:05:49;;;;;;;0.70;0.70;;;;;;;;;;5061785;28;20430;-80
2021/07/30 00:08:15;;;;;;;0.90;0.80;;;;;;;;;;5063928;28;20438;-80
2021/07/30 00:10:41;;;;;;;0.97;0.87;;;;;;;;;;5062364;28;20183;-80
2021/07/30 00:13:07;;;;;;;1.20;0.80;;;;;;;;;;5069315;28;20488;-80
2021/07/30 00:15:33;;;;;;;0.73;0.70;;;;;;;;;;5067676;28;20437;-80
2021/07/30 00:17:59;;;;;;;0.70;0.70;;;;;;;;;;5072998;28;20781;-80
2021/07/30 00:20:25;;;;;;;0.70;0.60;;;;;;;;;;5067360;28;20439;-80
2021/07/30 00:22:51;;;;;;;0.83;0.83;;;;;;;;;;5068514;28;20408;-81
2021/07/30 00:25:17;;;;;;;1.20;1.10;;;;;;;;;;5060061;28;20409;-80
2021/07/30 00:27:43;;;;;;;1.10;0.90;;;;;;;;;;5062800;28;21003;-81
2021/07/30 00:30:10;;;;;;;1.00;0.80;;;;;;;;;;5067826;28;20434;-81
2021/07/30 00:32:36;;;;;;;1.17;0.73;;;;;;;;;;5075985;28;20955;-79
2021/07/30 00:35:01;;;;;;;1.17;1.07;;;;;;;;;;5073791;28;20435;-80
2021/07/30 00:37:27;;;;;;;0.87;0.87;;;;;;;;;;5078242;28;20467;-81
2021/07/30 00:39:53;;;;;;;0.93;0.80;;;;;;;;;;5073474;28;20472;-81
2021/07/30 00:42:19;;;;;;;0.80;0.63;;;;;;;;;;5070404;28;20442;-81
2021/07/30 00:44:45;;;;;;;0.70;0.60;;;;;;;;;;5065999;28;20569;-80
2021/07/30 00:47:12;;;;;;;0.70;0.60;;;;;;;;;;5064836;28;20419;-81
2021/07/30 00:49:38;;;;;;;1.07;0.97;;;;;;;;;;5068710;28;20439;-81
2021/07/30 00:52:04;;;;;;;1.10;0.93;;;;;;;;;;5061544;28;20443;-81
2021/07/30 00:54:30;;;;;;;0.70;0.70;;;;;;;;;;5063487;28;20813;-80
2021/07/30 00:56:56;;;;;;;0.70;0.60;;;;;;;;;;5070268;28;20430;-82
2021/07/30 00:59:23;;;;;;;0.70;0.70;;;;;;;;;;5065975;28;20994;-81
2021/07/30 01:01:50;;;;;;;1.37;1.00;;;;;;;;;;5064845;28;20436;-82
2021/07/30 01:04:16;;;;;;;0.70;0.60;;;;;;;;;;5068782;28;20457;-80
2021/07/30 01:06:41;;;;;;;2.70;0.90;;;;;;;;;;5063035;28;21098;-80
2021/07/30 01:09:07;;;;;;;0.70;0.60;;;;;;;;;;5068473;28;20437;-82
2021/07/30 01:11:34;;;;;;;0.70;0.70;;;;;;;;;;5069699;28;20438;-81
2021/07/30 01:14:00;;;;;;;0.70;0.60;;;;;;;;;;5070708;28;20862;-81
2021/07/30 01:16:26;;;;;;;1.10;1.03;;;;;;;;;;5071914;28;20940;-81
2021/07/30 01:18:52;;;;;;;1.17;0.90;;;;;;;;;;5070392;28;20438;-82
2021/07/30 01:21:21;;;;;;;0.70;0.60;;;;;;;;;;5067688;28;20902;-82
2021/07/30 01:23:47;;;;;;;0.80;0.80;;;;;;;;;;5074418;28;21008;-82
2021/07/30 01:26:14;;;;;;;0.70;0.70;;;;;;;;;;5071604;28;20432;-80
2021/07/30 01:28:39;;;;;;;0.90;0.70;;;;;;;;;;5071567;28;20446;-81
2021/07/30 01:31:06;;;;;;;0.70;0.60;;;;;;;;;;5071738;28;20528;-80
2021/07/30 01:33:32;;;;;;;4.10;0.97;;;;;;;;;;5063044;28;20477;-81
2021/07/30 01:35:58;;;;;;;0.70;0.60;;;;;;;;;;5049645;28;20437;-80
2021/07/30 01:38:24;;;;;;;1.23;1.13;;;;;;;;;;5072552;28;20924;-81
2021/07/30 01:40:49;;;;;;;2.50;0.90;;;;;;;;;;5073211;28;20475;-81
2021/07/30 01:43:15;;;;;;;0.70;0.63;;;;;;;;;;5064438;28;20968;-81
2021/07/30 01:45:41;;;;;;;1.20;0.87;;;;;;;;;;5068811;28;20517;-81
2021/07/30 01:48:07;;;;;;;1.10;0.77;;;;;;;;;;5063692;28;20413;-80
2021/07/30 01:50:33;;;;;;;0.70;0.70;;;;;;;;;;5065910;28;20434;-81
2021/07/30 01:52:59;;;;;;;0.70;0.60;;;;;;;;;;5065209;28;20405;-80
2021/07/30 01:55:25;;;;;;;0.70;0.60;;;;;;;;;;5070927;28;20443;-81
2021/07/30 01:57:52;;;;;;;1.10;1.00;;;;;;;;;;5062201;28;20434;-80
2021/07/30 02:00:18;;;;;;;1.30;1.03;;;;;;;;;;5062095;28;20400;-82
2021/07/30 02:02:47;;;;;;;1.53;0.93;;;;;;;;;;5070529;28;20461;-82
2021/07/30 02:05:13;;;;;;;0.80;0.80;;;;;;;;;;5065390;28;20481;-81
2021/07/30 02:07:39;;;;;;;0.70;0.60;;;;;;;;;;5064091;28;20458;-81
2021/07/30 02:10:06;;;;;;;2.07;0.90;;;;;;;;;;5065575;28;20431;-81
2021/07/30 02:14:14;;;;;;;0.80;0.70;;;;;;;;;;5065833;28;20437;-80
2021/07/30 02:15:17;;;;;;;0.80;0.60;;;;;;;;;;5070483;28;20415;-80
2021/07/30 02:17:43;;;;;;;0.77;0.73;;;;;;;;;;5072150;28;20888;-80
2021/07/30 02:20:09;;;;;;;0.80;0.80;;;;;;;;;;5063945;28;20439;-80
2021/07/30 02:22:35;;;;;;;1.07;0.97;;;;;;;;;;5055132;28;20464;-80
2021/07/30 02:25:01;;;;;;;0.77;0.70;;;;;;;;;;5057689;28;20477;-80
2021/07/30 02:27:27;;;;;;;1.13;0.90;;;;;;;;;;5065713;28;20492;-81
2021/07/30 02:29:53;;;;;;;0.70;0.60;;;;;;;;;;5064227;28;20437;-82
2021/07/30 02:32:19;;;;;;;0.80;0.70;;;;;;;;;;5068137;28;20806;-80
2021/07/30 02:34:45;;;;;;;0.70;0.50;;;;;;;;;;5060460;28;20436;-82
2021/07/30 02:37:11;;;;;;;0.70;0.60;;;;;;;;;;5058957;28;20442;-80
2021/07/30 02:39:37;;;;;;;0.80;0.80;;;;;;;;;;5061440;28;20943;-81
2021/07/30 02:42:03;;;;;;;1.13;1.03;;;;;;;;;;5062542;28;20470;-81
2021/07/30 02:44:29;;;;;;;0.70;0.67;;;;;;;;;;5068398;28;20451;-80
2021/07/30 02:46:55;;;;;;;0.90;0.80;;;;;;;;;;5063154;28;20408;-80
2021/07/30 02:49:20;;;;;;;0.70;0.60;;;;;;;;;;5061179;28;20463;-80
2021/07/30 02:51:46;;;;;;;1.23;1.13;;;;;;;;;;5070796;28;20920;-80
2021/07/30 02:54:12;;;;;;;1.03;0.87;;;;;;;;;;5064785;28;20520;-80
2021/07/30 02:56:38;;;;;;;3.37;1.27;;;;;;;;;;5063079;28;20458;-81
2021/07/30 02:59:04;;;;;;;0.70;0.70;;;;;;;;;;5063534;28;20498;-80
2021/07/30 03:01:30;;;;;;;0.70;0.60;;;;;;;;;;5064282;28;20438;-80
2021/07/30 03:03:56;;;;;;;0.73;0.70;;;;;;;;;;5066157;28;20495;-80
2021/07/30 03:06:22;;;;;;;1.07;1.03;;;;;;;;;;5066287;28;20492;-81
2021/07/30 03:08:48;;;;;;;1.30;0.90;;;;;;;;;;5059721;28;20436;-80
2021/07/30 03:11:14;;;;;;;0.80;0.80;;;;;;;;;;5048566;28;20440;-81
2021/07/30 03:13:40;;;;;;;0.80;0.80;;;;;;;;;;5059403;28;20458;-81
2021/07/30 03:16:06;;;;;;;1.13;0.70;;;;;;;;;;5070844;28;20441;-81
2021/07/30 03:18:32;;;;;;;0.90;0.90;;;;;;;;;;5072391;28;20411;-80
2021/07/30 03:20:58;;;;;;;1.13;1.00;;;;;;;;;;5068438;28;20542;-81
2021/07/30 03:23:24;;;;;;;0.70;0.60;;;;;;;;;;5063054;28;20518;-81
2021/07/30 03:25:50;;;;;;;1.20;1.10;;;;;;;;;;5044282;28;20439;-82
2021/07/30 03:28:16;;;;;;;1.20;1.03;;;;;;;;;;5063906;28;20469;-81
2021/07/30 03:30:42;;;;;;;1.37;1.27;;;;;;;;;;5064189;28;20440;-81
2021/07/30 03:33:08;;;;;;;0.70;0.60;;;;;;;;;;5067459;28;20465;-81
2021/07/30 03:35:34;;;;;;;1.17;1.07;;;;;;;;;;5066925;28;20437;-81
2021/07/30 03:38:00;;;;;;;1.00;0.70;;;;;;;;;;5063149;28;20444;-81
2021/07/30 03:40:26;;;;;;;1.20;1.00;;;;;;;;;;5065584;28;21090;-79
2021/07/30 03:42:52;;;;;;;0.70;0.63;;;;;;;;;;5054360;28;20490;-80
2021/07/30 03:45:18;;;;;;;0.70;0.70;;;;;;;;;;5061907;28;21029;-80
2021/07/30 03:47:44;;;;;;;0.80;0.77;;;;;;;;;;5062234;28;20414;-80
2021/07/30 03:50:10;;;;;;;1.30;1.20;;;;;;;;;;5070314;28;20432;-81
2021/07/30 03:52:36;;;;;;;0.90;0.80;;;;;;;;;;5058761;28;20437;-79
2021/07/30 03:55:02;;;;;;;1.10;0.73;;;;;;;;;;5075757;28;20532;-77
2021/07/30 03:57:28;;;;;;;1.07;0.97;;;;;;;;;;5073789;28;20434;-80
2021/07/30 03:59:54;;;;;;;0.70;0.70;;;;;;;;;;5065853;28;20429;-80
2021/07/30 04:02:20;;;;;;;0.80;0.75;;;;;;;;;;5077450;28;20431;-80
2021/07/30 04:04:46;;;;;;;1.30;1.20;;;;;;;;;;5067712;28;20267;-79
2021/07/30 04:07:12;;;;;;;0.70;0.60;;;;;;;;;;5077362;28;20435;-81
2021/07/30 04:09:38;;;;;;;1.00;0.90;;;;;;;;;;5076166;28;20433;-81
2021/07/30 04:12:04;;;;;;;0.80;0.70;;;;;;;;;;5071252;28;20448;-80
2021/07/30 04:14:30;;;;;;;0.70;0.60;;;;;;;;;;5075554;28;20872;-80
2021/07/30 04:16:56;;;;;;;4.30;1.30;;;;;;;;;;5073058;28;20434;-79
2021/07/30 04:19:22;;;;;;;0.80;0.70;;;;;;;;;;5066736;28;20431;-80
2021/07/30 04:21:50;;;;;;;1.30;1.20;;;;;;;;;;5064893;28;20446;-80
2021/07/30 04:24:17;;;;;;;2.38;1.55;;;;;;;;;;5070579;28;20489;-79
2021/07/30 04:26:43;;;;;;;1.10;1.00;;;;;;;;;;5064123;28;20183;-81
2021/07/30 04:29:09;;;;;;;3.80;1.08;;;;;;;;;;5070486;28;20539;-77
2021/07/30 04:31:38;;;;;;;0.70;0.60;;;;;;;;;;5068523;28;20193;-78
2021/07/30 04:34:04;;;;;;;0.93;0.70;;;;;;;;;;5064804;28;20461;-77
2021/07/30 04:36:30;;;;;;;1.10;0.80;;;;;;;;;;5072506;28;20992;-77
2021/07/30 04:38:56;;;;;;;0.80;0.70;;;;;;;;;;5063119;28;20867;-77
2021/07/30 04:41:22;;;;;;;0.80;0.70;;;;;;;;;;5072701;28;20954;-77
2021/07/30 04:43:48;;;;;;;1.23;1.13;;;;;;;;;;5065296;28;20926;-77
2021/07/30 04:46:15;;;;;;;0.80;0.70;;;;;;;;;;5069272;28;20207;-77
2021/07/30 04:48:41;;;;;;;1.70;1.25;;;;;;;;;;5065029;28;20516;-77
2021/07/30 04:51:07;;;;;;;0.70;0.60;;;;;;;;;;5063674;28;20178;-77
2021/07/30 04:53:33;;;;;;;1.20;1.00;;;;;;;;;;5062190;28;20334;-78
2021/07/30 04:55:59;;;;;;;0.87;0.87;;;;;;;;;;5056789;28;20554;-78
2021/07/30 04:58:25;;;;;;;0.70;0.60;;;;;;;;;;5065513;28;20414;-77
2021/07/30 05:00:51;;;;;;;0.80;0.63;;;;;;;;;;5050809;28;20448;-78
2021/07/30 05:03:17;;;;;;;1.10;1.00;;;;;;;;;;5066322;28;20476;-77
2021/07/30 05:05:42;;;;;;;1.00;0.90;;;;;;;;;;5068138;28;20434;-78
2021/07/30 05:08:08;;;;;;;1.07;0.97;;;;;;;;;;5065028;28;20413;-77
2021/07/30 05:10:34;;;;;;;0.70;0.70;;;;;;;;;;5071494;28;20428;-77
2021/07/30 05:13:00;;;;;;;1.63;1.17;;;;;;;;;;5062351;28;20888;-78
2021/07/30 05:15:27;;;;;;;0.80;0.80;;;;;;;;;;5063902;28;20445;-77
2021/07/30 05:17:53;;;;;;;0.70;0.70;;;;;;;;;;5068032;28;20818;-77
2021/07/30 05:20:19;;;;;;;1.07;0.70;;;;;;;;;;5062255;28;20944;-78
2021/07/30 05:22:44;;;;;;;0.70;0.60;;;;;;;;;;5071263;28;20406;-78
2021/07/30 05:25:11;;;;;;;1.47;1.37;;;;;;;;;;5073205;28;20890;-77
2021/07/30 05:27:37;;;;;;;0.70;0.50;;;;;;;;;;5071908;28;20422;-76
2021/07/30 05:30:03;;;;;;;0.97;0.97;;;;;;;;;;5073165;28;20915;-77
2021/07/30 05:32:29;;;;;;;0.70;0.60;;;;;;;;;;5071271;28;20436;-77
2021/07/30 05:34:55;;;;;;;0.87;0.87;;;;;;;;;;5071339;28;20510;-77
2021/07/30 05:37:21;;;;;;;1.70;1.60;;;;;;;;;;5065999;28;20500;-77
2021/07/30 05:39:47;;;;;;;1.03;0.80;;;;;;;;;;5072250;28;20790;-77
2021/07/30 05:42:13;;;;;;;1.47;1.37;;;;;;;;;;5071945;28;20411;-77
2021/07/30 05:44:40;;;;;;;0.70;0.70;;;;;;;;;;5096589;22;20598;-76
2021/07/30 05:47:05;;;;;;;1.20;1.10;;;;;;;;;;5080019;28;20789;-76
2021/07/30 05:49:34;;;;;;;1.30;1.20;;;;;;;;;;5073027;28;20375;-76
2021/07/30 05:52:00;;;;;;;1.13;1.03;;;;;;;;;;5075574;28;20441;-78
2021/07/30 05:54:26;;;;;;;0.93;0.77;;;;;;;;;;5074435;28;20433;-79
2021/07/30 05:56:56;;;;;;;0.80;0.70;;;;;;;;;;5073329;28;20783;-76
2021/07/30 05:59:22;;;;;;;0.80;0.70;;;;;;;;;;5087838;28;20418;-76
2021/07/30 06:01:48;;;;;;;0.80;0.80;;;;;;;;;;5092544;28;20410;-76
2021/07/30 06:04:14;;;;;;;0.70;0.70;;;;;;;;;;5093742;28;20441;-76
2021/07/30 06:06:40;;;;;;;0.70;0.60;;;;;;;;;;5093851;28;20417;-76
2021/07/30 06:09:06;;;;;;;0.80;0.73;;;;;;;;;;5092962;28;20490;-75
2021/07/30 06:11:32;;;;;;;0.87;0.87;;;;;;;;;;5091274;28;20429;-76
2021/07/30 06:13:58;;;;;;;0.70;0.57;;;;;;;;;;5091631;28;20460;-75
2021/07/30 06:16:24;;;;;;;1.70;1.60;;;;;;;;;;5083179;28;20837;-76
2021/07/30 06:18:50;;;;;;;0.83;0.83;;;;;;;;;;5092594;28;20403;-76
2021/07/30 06:21:22;;;;;;;0.87;0.80;;;;;;;;;;5092611;28;20395;-76
2021/07/30 06:23:48;;;;;;;0.90;0.90;;;;;;;;;;5092424;28;20461;-76
2021/07/30 06:26:14;;;;;;;0.70;0.60;;;;;;;;;;5091867;28;20410;-75
2021/07/30 06:28:40;;;;;;;0.80;0.80;;;;;;;;;;5090812;28;20408;-76
2021/07/30 06:31:06;;;;;;;0.80;0.70;;;;;;;;;;5091394;28;20432;-76
2021/07/30 06:33:33;;;;;;;0.80;0.70;;;;;;;;;;5092084;28;20408;-75
2021/07/30 06:35:58;;;;;;;1.20;0.77;;;;;;;;;;5092152;28;20385;-76
2021/07/30 06:38:24;;;;;;;0.87;0.83;;;;;;;;;;5092200;28;20396;-76
2021/07/30 06:40:50;;;;;;;0.87;0.60;;;;;;;;;;5090698;28;20468;-76
2021/07/30 06:43:16;;;;;;;1.27;0.73;;;;;;;;;;5091852;28;20881;-76
2021/07/30 06:45:44;;;;;;;0.70;0.70;;;;;;;;;;5088895;28;20389;-76
2021/07/30 06:48:11;;;;;;;0.70;0.50;;;;;;;;;;5085251;28;20400;-76
2021/07/30 06:50:37;;;;;;;1.23;1.13;;;;;;;;;;5092122;28;20450;-76
2021/07/30 06:53:03;;;;;;;0.80;0.73;;;;;;;;;;5092794;28;20837;-76
2021/07/30 06:55:29;;;;;;;0.87;0.87;;;;;;;;;;5090564;28;20919;-76
2021/07/30 06:57:55;;;;;;;0.70;0.60;;;;;;;;;;5091672;28;20427;-76
2021/07/30 07:00:21;;;;;;;0.80;0.60;;;;;;;;;;5091102;28;20957;-76
2021/07/30 07:02:46;;;;;;;0.70;0.60;;;;;;;;;;5091865;28;20384;-76
2021/07/30 07:05:12;;;;;;;1.33;0.90;;;;;;;;;;5093045;28;20523;-76
2021/07/30 07:07:38;;;;;;;1.13;1.03;;;;;;;;;;5091706;28;20381;-76
2021/07/30 07:10:04;;;;;;;1.30;1.23;;;;;;;;;;5090347;28;20972;-75
2021/07/30 07:12:30;;;;;;;0.90;0.70;;;;;;;;;;5091933;28;20388;-76
2021/07/30 07:14:56;;;;;;;0.70;0.60;;;;;;;;;;5091260;28;20766;-76
2021/07/30 07:17:22;;;;;;;0.90;0.90;;;;;;;;;;5090089;28;20392;-76
2021/07/30 07:19:48;;;;;;;0.73;0.73;;;;;;;;;;5092320;28;20895;-78
2021/07/30 07:22:14;;;;;;;1.10;0.80;;;;;;;;;;5093740;28;20735;-76
2021/07/30 07:24:40;;;;;;;0.70;0.60;;;;;;;;;;5071444;28;20842;-76
2021/07/30 07:27:07;;;;;;;0.70;0.70;;;;;;;;;;5074054;28;20429;-76
2021/07/30 07:29:33;;;;;;;0.70;0.50;;;;;;;;;;5093436;28;20497;-76
2021/07/30 07:31:59;;;;;;;0.70;0.60;;;;;;;;;;5093825;28;20442;-76
2021/07/30 07:34:25;;;;;;;0.80;0.70;;;;;;;;;;5095836;28;20433;-76
2021/07/30 07:36:51;;;;;;;0.70;0.70;;;;;;;;;;5096150;28;20435;-78
2021/07/30 07:39:17;;;;;;;0.70;0.60;;;;;;;;;;5083048;28;20412;-78
2021/07/30 07:41:44;;;;;;;0.70;0.60;;;;;;;;;;5075658;28;20417;-76
2021/07/30 07:44:12;;;;;;;0.70;0.60;;;;;;;;;;5074846;28;20483;-76
2021/07/30 07:46:38;;;;;;;0.60;0.50;;;;;;;;;;5093308;28;20426;-76
2021/07/30 07:49:04;;;;;;;0.70;0.70;;;;;;;;;;5095667;28;20531;-76
2021/07/30 07:51:30;;;;;;;0.80;0.80;;;;;;;;;;5095299;28;20435;-76
2021/07/30 07:53:56;;;;;;;0.70;0.50;;;;;;;;;;5095280;28;20444;-76
2021/07/30 07:56:22;;;;;;;0.70;0.60;;;;;;;;;;5093857;28;20489;-76
2021/07/30 07:58:48;;;;;;;0.70;0.70;;;;;;;;;;5095044;28;20442;-76
2021/07/30 08:01:15;;;;;;;0.80;0.77;;;;;;;;;;5094396;28;20967;-76
2021/07/30 08:03:44;;;;;;;1.00;0.90;;;;;;;;;;5095067;28;20447;-76
2021/07/30 08:06:14;;;;;;;1.17;1.10;;;;;;;;;;5094633;28;20454;-76
2021/07/30 08:08:40;;;;;;;0.70;0.60;;;;;;;;;;5095237;28;20810;-76
2021/07/30 08:11:06;;;;;;;0.80;0.70;;;;;;;;;;5093773;28;20424;-76
2021/07/30 08:13:32;;;;;;;1.47;1.33;;;;;;;;;;5093933;28;20428;-76
2021/07/30 08:15:58;;;;;;;0.80;0.70;;;;;;;;;;5085895;28;20427;-76
2021/07/30 08:18:24;;;;;;;0.60;0.60;;;;;;;;;;5090671;28;20427;-76
2021/07/30 08:20:50;;;;;;;1.13;0.70;;;;;;;;;;5097393;28;20515;-76
2021/07/30 08:23:16;;;;;;;0.60;0.60;;;;;;;;;;5094640;28;20419;-76
2021/07/30 08:25:42;;;;;;;0.90;0.70;;;;;;;;;;5094802;28;20401;-76
2021/07/30 08:28:08;;;;;;;0.60;0.50;;;;;;;;;;5093481;28;20425;-76
2021/07/30 08:30:34;;;;;;;0.70;0.70;;;;;;;;;;5094952;28;20402;-76
2021/07/30 08:33:00;;;;;;;0.60;0.60;;;;;;;;;;5094772;28;20424;-77
2021/07/30 08:35:26;;;;;;;0.60;0.60;;;;;;;;;;5094435;28;20447;-76
2021/07/30 08:37:52;;;;;;;0.60;0.60;;;;;;;;;;5093421;28;20923;-77
2021/07/30 08:40:18;;;;;;;0.80;0.80;;;;;;;;;;5110255;28;20423;-76
2021/07/30 08:42:44;;;;;;;0.70;0.60;;;;;;;;;;5094542;28;21168;-76
2021/07/30 08:45:10;;;;;;;0.80;0.80;;;;;;;;;;5093839;28;20472;-76
2021/07/30 08:47:36;;;;;;;1.00;1.00;;;;;;;;;;5085445;28;20414;-76
2021/07/30 08:50:03;;;;;;;0.80;0.70;;;;;;;;;;5094248;28;20455;-77
2021/07/30 08:52:32;;;;;;;0.70;0.60;;;;;;;;;;5094302;28;20779;-76
2021/07/30 08:54:58;;;;;;;0.80;0.80;;;;;;;;;;5094226;28;20430;-76
2021/07/30 08:57:24;;;;;;;0.60;0.60;;;;;;;;;;5093194;28;20438;-76
2021/07/30 08:59:50;;;;;;;0.67;0.67;;;;;;;;;;5094293;28;20410;-76
2021/07/30 09:02:17;;;;;;;0.60;0.60;;;;;;;;;;5093895;28;20880;-76
2021/07/30 09:04:43;;;;;;;0.70;0.60;;;;;;;;;;5093960;28;20839;-76
2021/07/30 09:07:09;;;;;;;0.60;0.50;;;;;;;;;;5093726;28;20416;-76
2021/07/30 09:09:35;;;;;;;0.80;0.67;;;;;;;;;;5093865;28;20490;-76
2021/07/30 09:12:02;;;;;;;0.60;0.50;;;;;;;;;;5093905;28;20409;-76
2021/07/30 09:14:37;;;;;;;0.70;0.70;;;;;;;;;;5093530;28;20442;-76
2021/07/30 09:17:04;;;;;;;0.70;0.70;;;;;;;;;;5088055;28;20426;-76
2021/07/30 09:19:30;;;;;;;1.23;1.13;;;;;;;;;;5074215;28;20414;-77
2021/07/30 09:22:06;;;;;;;2.50;1.00;;;;;;;;;;5073591;28;20420;-76
2021/07/30 09:24:35;;;;;;;0.60;0.60;;;;;;;;;;5073392;28;20499;-76
2021/07/30 09:27:01;;;;;;;0.80;0.80;;;;;;;;;;5073544;28;20452;-76
2021/07/30 09:29:28;;;;;;;0.70;0.60;;;;;;;;;;5091963;28;20472;-76
2021/07/30 09:31:55;;;;;;;0.70;0.70;;;;;;;;;;5092309;28;20808;-76
2021/07/30 09:34:26;;;;;;;0.67;0.60;;;;;;;;;;5093630;28;20851;-76
2021/07/30 09:36:57;;;;;;;1.20;0.90;;;;;;;;;;5092995;28;20908;-76
2021/07/30 09:39:28;;;;;;;0.70;0.60;;;;;;;;;;5093239;28;20532;-76
2021/07/30 09:41:55;;;;;;;0.60;0.50;;;;;;;;;;5093508;28;20413;-76
2021/07/30 09:44:21;;;;;;;0.70;0.63;;;;;;;;;;5093226;28;20469;-76
2021/07/30 09:47:06;;;;;;;0.60;0.50;;;;;;;;;;5092685;28;20421;-76
2021/07/30 09:49:35;;;;;;;0.60;0.50;;;;;;;;;;5093382;28;20429;-76
2021/07/30 09:52:01;;;;;;;0.60;0.50;;;;;;;;;;5094186;28;20408;-76
2021/07/30 09:54:27;;;;;;;0.60;0.50;;;;;;;;;;5093122;28;20515;-76
2021/07/30 09:56:53;;;;;;;0.70;0.60;;;;;;;;;;5090773;28;20430;-76
2021/07/30 09:59:20;;;;;;;1.60;0.70;;;;;;;;;;5092815;28;20416;-76
2021/07/30 10:01:46;;;;;;;1.77;1.27;;;;;;;;;;5091309;28;20426;-76
2021/07/30 10:04:12;;;;;;;0.80;0.80;;;;;;;;;;5093566;28;20488;-76
2021/07/30 10:06:38;;;;;;;0.87;0.60;;;;;;;;;;5092938;28;20410;-76
2021/07/30 10:09:05;;;;;;;0.60;0.50;;;;;;;;;;5093400;28;20410;-76
2021/07/30 10:11:37;;;;;;;0.60;0.60;;;;;;;;;;5093846;28;20410;-76
2021/07/30 10:14:05;;;;;;;0.70;0.70;;;;;;;;;;5093844;28;20433;-74
2021/07/30 10:16:32;;;;;;;0.77;0.77;;;;;;;;;;5091408;28;20426;-73
2021/07/30 10:18:59;;;;;;;1.07;0.60;;;;;;;;;;5087733;28;20909;-74
2021/07/30 10:21:25;;;;;;;0.70;0.60;;;;;;;;;;5072822;28;21118;-74
2021/07/30 10:23:52;;;;;;;0.60;0.50;;;;;;;;;;5092524;28;20557;-74
2021/07/30 10:26:23;;;;;;;0.70;0.50;;;;;;;;;;5092372;28;20776;-74
2021/07/30 10:28:49;;;;;;;0.60;0.50;;;;;;;;;;5091209;28;20430;-73
2021/07/30 10:31:15;;;;;;;0.90;0.77;;;;;;;;;;5092321;28;20406;-73
2021/07/30 10:33:44;;;;;;;0.70;0.60;;;;;;;;;;5092172;28;20524;-73
2021/07/30 10:36:12;;;;;;;1.20;1.10;;;;;;;;;;5092356;28;20962;-73
2021/07/30 10:38:39;;;;;;;0.70;0.57;;;;;;;;;;5084329;28;20438;-73
2021/07/30 10:41:08;;;;;;;0.60;0.57;;;;;;;;;;5072053;28;20414;-73
2021/07/30 10:43:49;;;;;;;0.60;0.50;;;;;;;;;;5071615;28;20524;-73
2021/07/30 10:46:15;;;;;;;0.60;0.57;;;;;;;;;;5086371;28;20442;-73
2021/07/30 10:48:42;;;;;;;0.80;0.57;;;;;;;;;;5073186;28;20415;-73
2021/07/30 10:51:20;;;;;;;0.60;0.60;;;;;;;;;;5072028;28;20612;-73
2021/07/30 10:53:46;;;;;;;0.60;0.50;;;;;;;;;;5071993;28;20427;-73
2021/07/30 10:56:18;;;;;;;0.60;0.50;;;;;;;;;;5072337;28;20411;-73
2021/07/30 10:58:44;;;;;;;0.90;0.50;;;;;;;;;;5092251;28;20406;-73
2021/07/30 11:01:10;;;;;;;0.60;0.57;;;;;;;;;;5091406;28;20430;-73
2021/07/30 11:03:51;;;;;;;0.80;0.80;;;;;;;;;;5091615;28;20461;-73
2021/07/30 11:06:18;;;;;;;0.80;0.80;;;;;;;;;;5091818;28;20962;-73
2021/07/30 11:08:59;;;;;;;0.70;0.70;;;;;;;;;;5091949;28;20892;-73
2021/07/30 11:11:41;;;;;;;0.80;0.80;;;;;;;;;;5092088;28;20407;-74
2021/07/30 11:14:08;;;;;;;0.70;0.63;;;;;;;;;;5091251;28;20438;-73
2021/07/30 11:16:33;;;;;;;0.80;0.80;;;;;;;;;;5084868;28;20434;-73
2021/07/30 11:19:03;;;;;;;0.70;0.60;;;;;;;;;;5090505;28;20541;-73
2021/07/30 11:27:36;;;;;;;0.60;0.57;;;;;;;;;;5084585;28;20475;-73
2021/07/30 11:30:03;;;;;;;0.70;0.63;;;;;;;;;;5091253;28;20410;-73
2021/07/30 11:32:31;;;;;;;0.70;0.70;;;;;;;;;;5090570;28;20417;-74
2021/07/30 11:34:57;;;;;;;0.90;0.50;;;;;;;;;;5090955;28;20577;-73
2021/07/30 11:37:28;;;;;;;0.70;0.70;;;;;;;;;;5092046;28;20418;-73
2021/07/30 11:39:54;;;;;;;0.70;0.50;;;;;;;;;;5073349;28;20411;-73
2021/07/30 11:42:25;;;;;;;0.80;0.80;;;;;;;;;;5071496;28;20415;-73
2021/07/30 11:44:52;;;;;;;0.80;0.80;;;;;;;;;;5082815;28;20965;-73
2021/07/30 11:47:19;;;;;;;0.80;0.80;;;;;;;;;;5091290;28;20411;-73
2021/07/30 11:49:59;;;;;;;0.60;0.50;;;;;;;;;;5091740;28;20431;-73
2021/07/30 11:52:25;;;;;;;0.70;0.57;;;;;;;;;;5090398;28;20435;-75
2021/07/30 11:54:51;;;;;;;0.70;0.70;;;;;;;;;;5092255;28;20437;-76
2021/07/30 11:57:29;;;;;;;0.60;0.60;;;;;;;;;;5088255;28;20490;-78
2021/07/30 11:59:55;;;;;;;0.60;0.60;;;;;;;;;;5089358;28;20533;-76
2021/07/30 12:02:24;;;;;;;0.90;0.60;;;;;;;;;;5089668;28;20435;-76
2021/07/30 12:04:59;;;;;;;0.87;0.87;;;;;;;;;;5089393;28;20492;-76
2021/07/30 12:07:31;;;;;;;0.87;0.60;;;;;;;;;;5089508;28;20475;-75
2021/07/30 12:09:58;;;;;;;0.60;0.50;;;;;;;;;;5089865;28;20453;-76
2021/07/30 12:12:25;;;;;;;0.50;0.40;;;;;;;;;;5090013;28;20472;-76
2021/07/30 12:14:52;;;;;;;0.67;0.67;;;;;;;;;;5094306;28;20448;-76
2021/07/30 12:17:19;;;;;;;0.50;0.40;;;;;;;;;;5079438;28;20974;-76
2021/07/30 12:19:55;;;;;;;0.63;0.63;;;;;;;;;;5073500;28;20498;-76
2021/07/30 12:22:32;;;;;;;0.80;0.70;;;;;;;;;;5073441;28;20772;-77
2021/07/30 12:24:58;;;;;;;0.57;0.50;;;;;;;;;;5074771;28;20467;-75
2021/07/30 12:27:24;;;;;;;0.60;0.57;;;;;;;;;;5082404;28;20417;-75
2021/07/30 12:29:52;;;;;;;0.60;0.60;;;;;;;;;;5094667;28;20890;-77
2021/07/30 12:32:19;;;;;;;0.67;0.67;;;;;;;;;;5095111;28;20407;-76
2021/07/30 12:34:57;;;;;;;0.60;0.60;;;;;;;;;;5095078;28;20429;-76
2021/07/30 12:37:24;;;;;;;0.60;0.50;;;;;;;;;;5092996;28;20443;-76
2021/07/30 12:39:51;;;;;;;0.53;0.47;;;;;;;;;;5089749;28;20436;-75
2021/07/30 12:42:18;;;;;;;0.97;0.90;;;;;;;;;;5089061;28;20948;-76
2021/07/30 12:44:58;;;;;;;0.60;0.50;;;;;;;;;;5093655;28;20531;-76
2021/07/30 12:47:24;;;;;;;0.50;0.47;;;;;;;;;;5078888;28;20413;-77
2021/07/30 12:49:52;;;;;;;0.70;0.60;;;;;;;;;;5083757;28;20491;-77
2021/07/30 12:52:18;;;;;;;0.80;0.60;;;;;;;;;;5093601;28;20499;-76
2021/07/30 12:54:44;;;;;;;0.90;0.60;;;;;;;;;;5094050;28;20991;-74
2021/07/30 12:57:10;;;;;;;0.70;0.70;;;;;;;;;;5093908;28;20417;-75
2021/07/30 12:59:51;;;;;;;0.70;0.70;;;;;;;;;;5094122;28;20813;-75
2021/07/30 13:02:27;;;;;;;0.90;0.60;;;;;;;;;;5094122;28;20422;-75
2021/07/30 13:04:54;;;;;;;0.60;0.50;;;;;;;;;;5094041;28;21219;-75
2021/07/30 13:07:21;;;;;;;0.70;0.70;;;;;;;;;;5092494;28;20428;-74
2021/07/30 13:09:47;;;;;;;0.70;0.70;;;;;;;;;;5094036;28;20491;-74
2021/07/30 13:12:13;;;;;;;0.60;0.50;;;;;;;;;;5093966;28;20414;-75
2021/07/30 13:14:39;;;;;;;0.70;0.57;;;;;;;;;;5093638;28;20443;-75
2021/07/30 13:17:06;;;;;;;1.23;0.80;;;;;;;;;;5079472;28;20479;-75
2021/07/30 13:19:32;;;;;;;0.60;0.50;;;;;;;;;;5073586;28;20414;-75
2021/07/30 13:21:58;;;;;;;0.50;0.50;;;;;;;;;;5092776;28;20430;-75
2021/07/30 13:24:24;;;;;;;0.53;0.50;;;;;;;;;;5091972;28;20475;-75
2021/07/30 13:26:52;;;;;;;0.83;0.83;;;;;;;;;;5093003;28;20941;-75
2021/07/30 13:29:19;;;;;;;0.60;0.60;;;;;;;;;;5090345;28;20435;-75
2021/07/30 13:31:44;;;;;;;0.80;0.80;;;;;;;;;;5093160;28;20510;-75
2021/07/30 13:34:11;;;;;;;0.80;0.70;;;;;;;;;;5092470;28;20537;-75
2021/07/30 13:36:37;;;;;;;1.00;0.97;;;;;;;;;;5080738;28;20484;-76
2021/07/30 13:39:03;;;;;;;0.73;0.73;;;;;;;;;;5087094;28;20431;-76
2021/07/30 13:41:30;;;;;;;0.60;0.50;;;;;;;;;;5091876;28;20431;-74
2021/07/30 13:43:55;;;;;;;0.90;0.80;;;;;;;;;;5091502;28;20565;-74
2021/07/30 13:46:24;;;;;;;0.60;0.60;;;;;;;;;;5091287;28;20527;-74
2021/07/30 13:48:50;;;;;;;1.10;1.00;;;;;;;;;;5090550;28;20426;-75
2021/07/30 13:51:16;;;;;;;0.83;0.63;;;;;;;;;;5092559;28;20484;-74
2021/07/30 13:53:42;;;;;;;0.60;0.50;;;;;;;;;;5092977;28;20904;-75
2021/07/30 13:56:08;;;;;;;0.67;0.57;;;;;;;;;;5090367;28;20450;-75
2021/07/30 13:58:34;;;;;;;0.70;0.70;;;;;;;;;;5092254;28;20429;-75
2021/07/30 14:01:00;;;;;;;0.60;0.60;;;;;;;;;;5092612;28;21047;-74
2021/07/30 14:03:29;;;;;;;1.17;0.73;;;;;;;;;;5092644;28;20429;-75
2021/07/30 14:05:55;;;;;;;1.33;0.70;;;;;;;;;;5091693;28;21325;-75
2021/07/30 14:08:21;;;;;;;0.70;0.53;;;;;;;;;;5085726;28;20434;-74
2021/07/30 14:10:48;;;;;;;1.20;0.97;;;;;;;;;;5081532;28;20411;-75
2021/07/30 14:13:14;;;;;;;1.20;1.20;;;;;;;;;;5072532;28;20415;-75
2021/07/30 14:15:40;;;;;;;2.40;1.47;;;;;;;;;;5088544;28;20793;-75
2021/07/30 14:18:07;;;;;;;1.57;1.30;;;;;;;;;;5083049;28;20429;-74
2021/07/30 14:20:33;;;;;;;0.80;0.70;;;;;;;;;;5072349;28;20413;-74
2021/07/30 14:22:59;;;;;;;0.80;0.70;;;;;;;;;;5091543;28;20796;-75
2021/07/30 14:25:25;;;;;;;1.20;1.10;;;;;;;;;;5082939;28;20481;-74
2021/07/30 14:27:51;;;;;;;0.83;0.70;;;;;;;;;;5082341;28;20422;-74
2021/07/30 14:30:17;;;;;;;0.80;0.70;;;;;;;;;;5092291;28;20433;-75
2021/07/30 14:32:43;;;;;;;0.80;0.80;;;;;;;;;;5092377;28;20485;-75
2021/07/30 14:35:10;;;;;;;1.43;0.90;;;;;;;;;;5091840;28;20513;-75
2021/07/30 14:37:36;;;;;;;1.20;1.13;;;;;;;;;;5083827;28;20545;-74
2021/07/30 14:40:02;;;;;;;0.80;0.60;;;;;;;;;;5091409;28;20766;-75
2021/07/30 14:42:28;;;;;;;0.70;0.70;;;;;;;;;;5091946;28;20492;-76
2021/07/30 14:44:54;;;;;;;1.13;0.87;;;;;;;;;;5087987;28;20475;-76
2021/07/30 14:47:20;;;;;;;1.00;0.90;;;;;;;;;;5087101;28;20410;-76